createdAt,value
2023-01-25T00:00:00.906Z,96392.38
2023-01-25T00:02:27.969Z,96388.94
2023-01-25T00:04:54.778Z,96381.41
2023-01-25T00:07:21.348Z,96378.00
2023-01-25T00:09:47.887Z,96373.91
2023-01-25T00:12:14.723Z,96374.06
2023-01-25T00:14:41.375Z,96367.28
2023-01-25T00:17:08.008Z,96370.66
2023-01-25T00:19:34.572Z,96368.06
2023-01-25T00:22:01.141Z,96369.81
2023-01-25T00:24:28.936Z,96364.81
2023-01-25T00:26:55.510Z,96368.00
2023-01-25T00:29:22.103Z,96360.44
2023-01-25T00:31:59.060Z,96360.41
2023-01-25T00:34:25.647Z,96357.06
2023-01-25T00:36:57.012Z,96363.00
2023-01-25T00:39:26.100Z,96359.78
2023-01-25T00:41:52.691Z,96364.88
2023-01-25T00:44:19.755Z,96363.91
2023-01-25T00:46:47.169Z,96362.22
2023-01-25T00:49:25.724Z,96363.00
2023-01-25T00:51:54.018Z,96359.69
2023-01-25T00:54:20.839Z,96354.59
2023-01-25T00:56:47.623Z,96353.69
2023-01-25T00:59:15.335Z,96352.06
2023-01-25T01:01:42.646Z,96345.22
2023-01-25T01:04:09.504Z,96352.84
2023-01-25T01:06:38.085Z,96354.59
2023-01-25T01:09:07.691Z,96349.59
2023-01-25T01:11:34.377Z,96351.41
2023-01-25T01:14:01.059Z,96347.19
2023-01-25T01:16:27.802Z,96352.22
2023-01-25T01:18:54.502Z,96353.88
2023-01-25T01:21:21.649Z,96368.13
2023-01-25T01:23:48.665Z,96362.34
2023-01-25T01:26:17.085Z,96361.28
2023-01-25T01:28:43.725Z,96358.75
2023-01-25T01:31:17.807Z,96355.16
2023-01-25T01:33:53.410Z,96350.38
2023-01-25T01:36:22.872Z,96348.81
2023-01-25T01:38:50.026Z,96344.66
2023-01-25T01:41:17.414Z,96347.13
2023-01-25T01:43:44.858Z,96341.41
2023-01-25T01:46:15.675Z,96341.47
2023-01-25T01:48:50.892Z,96350.84
2023-01-25T01:51:20.694Z,96344.84
2023-01-25T01:54:21.663Z,96344.88
2023-01-25T01:56:57.479Z,96339.00
2023-01-25T01:59:30.851Z,96339.06
2023-01-25T02:01:57.446Z,96341.69
2023-01-25T02:04:27.063Z,96336.53
2023-01-25T02:07:02.587Z,96339.06
2023-01-25T02:09:32.218Z,96338.41
2023-01-25T02:12:00.420Z,96343.63
2023-01-25T02:14:29.019Z,96342.00
2023-01-25T02:16:56.455Z,96346.88
2023-01-25T02:19:59.922Z,96344.53
2023-01-25T02:22:39.039Z,96337.75
2023-01-25T02:25:10.461Z,96329.31
2023-01-25T02:27:43.178Z,96336.81
2023-01-25T02:30:10.331Z,96348.72
2023-01-25T02:32:37.666Z,96339.28
2023-01-25T02:35:06.435Z,96335.09
2023-01-25T02:37:33.443Z,96335.88
2023-01-25T02:40:00.220Z,96340.13
2023-01-25T02:42:31.888Z,96335.16
2023-01-25T02:45:01.540Z,96345.19
2023-01-25T02:47:28.137Z,96332.44
2023-01-25T02:49:54.703Z,96331.75
2023-01-25T02:52:21.305Z,96333.34
2023-01-25T02:54:47.974Z,96336.03
2023-01-25T02:57:14.580Z,96330.81
2023-01-25T02:59:43.449Z,96329.13
2023-01-25T03:02:11.182Z,96328.47
2023-01-25T03:04:37.879Z,96320.00
2023-01-25T03:07:04.779Z,96320.94
2023-01-25T03:09:31.421Z,96323.78
2023-01-25T03:11:58.667Z,96318.66
2023-01-25T03:14:26.696Z,96315.22
2023-01-25T03:16:53.259Z,96312.50
2023-01-25T03:19:22.775Z,96305.84
2023-01-25T03:21:49.512Z,96305.22
2023-01-25T03:24:16.256Z,96307.63
2023-01-25T03:27:04.835Z,96307.75
2023-01-25T03:29:51.710Z,96301.84
2023-01-25T03:32:22.272Z,96306.84
2023-01-25T03:34:49.007Z,96305.94
2023-01-25T03:37:17.171Z,96300.00
2023-01-25T03:39:44.137Z,96296.56
2023-01-25T03:42:11.686Z,96299.94
2023-01-25T03:44:38.570Z,96296.44
2023-01-25T03:47:05.316Z,96292.16
2023-01-25T03:49:33.004Z,96294.66
2023-01-25T03:52:00.619Z,96290.56
2023-01-25T03:54:34.685Z,96291.34
2023-01-25T03:57:01.606Z,96285.50
2023-01-25T03:59:29.195Z,96292.28
2023-01-25T04:01:55.925Z,96292.06
2023-01-25T04:04:23.021Z,96291.22
2023-01-25T04:06:50.339Z,96292.28
2023-01-25T04:09:17.786Z,96287.59
2023-01-25T04:11:51.098Z,96295.22
2023-01-25T04:14:25.471Z,96290.13
2023-01-25T04:17:05.366Z,96283.50
2023-01-25T04:19:41.572Z,96289.38
2023-01-25T04:22:13.003Z,96284.28
2023-01-25T04:24:39.761Z,96290.16
2023-01-25T04:27:06.661Z,96286.06
2023-01-25T04:29:41.644Z,96291.91
2023-01-25T04:32:13.925Z,96285.31
2023-01-25T04:34:40.858Z,96296.38
2023-01-25T04:37:15.566Z,96295.38
2023-01-25T04:39:52.510Z,96292.84
2023-01-25T04:42:19.880Z,96282.53
2023-01-25T04:44:50.116Z,96281.56
2023-01-25T04:47:16.953Z,96285.06
2023-01-25T04:49:43.567Z,96271.81
2023-01-25T04:52:10.289Z,96275.81
2023-01-25T04:54:37.166Z,96272.53
2023-01-25T04:57:04.524Z,96270.25
2023-01-25T04:59:31.126Z,96266.03
2023-01-25T05:01:57.781Z,96256.09
2023-01-25T05:04:25.059Z,96259.59
2023-01-25T05:06:51.885Z,96255.38
2023-01-25T05:09:18.484Z,96264.66
2023-01-25T05:11:46.155Z,96251.06
2023-01-25T05:14:20.808Z,96255.09
2023-01-25T05:16:47.597Z,96252.66
2023-01-25T05:19:14.580Z,96248.31
2023-01-25T05:21:58.251Z,96251.59
2023-01-25T05:24:29.509Z,96250.84
2023-01-25T05:27:01.193Z,96245.81
2023-01-25T05:29:40.029Z,96239.00
2023-01-25T05:32:18.578Z,96234.66
2023-01-25T05:34:45.969Z,96232.28
2023-01-25T05:37:16.837Z,96238.06
2023-01-25T05:39:45.347Z,96234.00
2023-01-25T05:42:17.467Z,96232.50
2023-01-25T05:44:47.058Z,96237.38
2023-01-25T05:47:16.882Z,96235.75
2023-01-25T05:49:44.096Z,96227.31
2023-01-25T05:52:17.364Z,96225.59
2023-01-25T05:54:44.427Z,96232.22
2023-01-25T05:57:16.275Z,96238.16
2023-01-25T05:59:43.883Z,96241.59
2023-01-25T06:02:13.065Z,96243.03
2023-01-25T06:04:40.653Z,96241.38
2023-01-25T06:07:08.979Z,96255.88
2023-01-25T06:09:36.201Z,96246.66
2023-01-25T06:12:04.080Z,96244.91
2023-01-25T06:14:30.733Z,96243.81
2023-01-25T06:16:58.075Z,96245.75
2023-01-25T06:19:50.989Z,96246.94
2023-01-25T06:22:32.800Z,96243.41
2023-01-25T06:24:59.390Z,96240.88
2023-01-25T06:27:25.978Z,96232.38
2023-01-25T06:29:52.571Z,96227.38
2023-01-25T06:32:19.209Z,96226.50
2023-01-25T06:34:46.414Z,96224.56
2023-01-25T06:37:20.215Z,96220.53
2023-01-25T06:39:46.917Z,96221.53
2023-01-25T06:42:13.494Z,96221.59
2023-01-25T06:44:40.197Z,96215.69
2023-01-25T06:47:09.071Z,96214.69
2023-01-25T06:49:35.649Z,96219.72
2023-01-25T06:52:02.255Z,96213.09
2023-01-25T06:54:28.860Z,96212.88
2023-01-25T06:56:55.469Z,96209.34
2023-01-25T06:59:22.105Z,96212.16
2023-01-25T07:01:48.727Z,96210.56
2023-01-25T07:04:15.870Z,96209.25
2023-01-25T07:06:42.569Z,96214.19
2023-01-25T07:09:12.812Z,96210.88
2023-01-25T07:11:39.397Z,96204.00
2023-01-25T07:14:06.225Z,96206.44
2023-01-25T07:16:36.918Z,96202.16
2023-01-25T07:19:04.918Z,96199.66
2023-01-25T07:21:31.609Z,96192.00
2023-01-25T07:24:02.707Z,96191.78
2023-01-25T07:26:30.036Z,96188.31
2023-01-25T07:28:58.619Z,96179.66
2023-01-25T07:31:26.387Z,96183.16
2023-01-25T07:33:55.598Z,96185.78
2023-01-25T07:36:23.110Z,96181.41
2023-01-25T07:38:53.397Z,96175.84
2023-01-25T07:41:20.014Z,96182.38
2023-01-25T07:43:46.881Z,96188.50
2023-01-25T07:46:20.542Z,96178.38
2023-01-25T07:48:52.371Z,96181.88
2023-01-25T07:51:23.398Z,96183.41
2023-01-25T07:53:53.817Z,96179.09
2023-01-25T07:56:26.477Z,96174.81
2023-01-25T07:58:54.749Z,96177.34
2023-01-25T08:01:23.721Z,96184.72
2023-01-25T08:03:50.969Z,96188.94
2023-01-25T08:06:22.759Z,96187.31
2023-01-25T08:08:49.459Z,96186.41
2023-01-25T08:11:20.273Z,96186.41
2023-01-25T08:13:48.989Z,96183.81
2023-01-25T08:16:17.819Z,96185.16
2023-01-25T08:18:50.777Z,96187.53
2023-01-25T08:21:18.765Z,96190.09
2023-01-25T08:23:45.835Z,96191.97
2023-01-25T08:26:14.513Z,96190.91
2023-01-25T08:28:41.117Z,96191.00
2023-01-25T08:31:10.050Z,96189.53
2023-01-25T08:33:36.734Z,96180.88
2023-01-25T08:36:04.047Z,96190.97
2023-01-25T08:38:31.321Z,96185.78
2023-01-25T08:41:06.029Z,96178.41
2023-01-25T08:43:32.846Z,96174.66
2023-01-25T08:45:59.432Z,96173.53
2023-01-25T08:48:26.137Z,96170.28
2023-01-25T08:50:52.737Z,96168.38
2023-01-25T08:53:19.551Z,96171.50
2023-01-25T08:55:46.474Z,96170.63
2023-01-25T08:58:16.136Z,96160.31
2023-01-25T09:00:44.134Z,96165.44
2023-01-25T09:03:11.885Z,96168.81
2023-01-25T09:05:39.794Z,96159.31
2023-01-25T09:08:08.247Z,96163.13
2023-01-25T09:10:35.747Z,96163.03
2023-01-25T09:13:02.604Z,96168.97
2023-01-25T09:15:29.177Z,96158.31
2023-01-25T09:17:57.018Z,96158.59
2023-01-25T09:20:24.586Z,96166.41
2023-01-25T09:22:51.225Z,96156.97
2023-01-25T09:25:18.204Z,96155.84
2023-01-25T09:27:44.787Z,96158.03
2023-01-25T09:30:18.144Z,96148.66
2023-01-25T09:32:50.929Z,96150.28
2023-01-25T09:35:17.801Z,96151.91
2023-01-25T09:37:44.480Z,96146.81
2023-01-25T09:40:23.671Z,96156.28
2023-01-25T09:42:53.197Z,96149.34
2023-01-25T09:45:31.703Z,96146.00
2023-01-25T09:48:17.032Z,96148.41
2023-01-25T09:51:05.848Z,96148.53
2023-01-25T09:53:37.060Z,96139.81
2023-01-25T09:56:17.670Z,96144.78
2023-01-25T09:58:48.693Z,96142.09
2023-01-25T10:01:37.472Z,96130.34
2023-01-25T10:04:11.526Z,96136.19
2023-01-25T10:06:44.016Z,96129.31
2023-01-25T10:09:37.448Z,96128.22
2023-01-25T10:12:16.095Z,96123.94
2023-01-25T10:14:42.719Z,96118.47
2023-01-25T10:17:33.698Z,96115.88
2023-01-25T10:20:25.394Z,96123.00
2023-01-25T10:23:10.266Z,96116.41
2023-01-25T10:25:45.867Z,96110.63
2023-01-25T10:28:30.004Z,96106.53
2023-01-25T10:31:11.027Z,96098.22
2023-01-25T10:33:43.194Z,96104.06
2023-01-25T10:36:14.851Z,96099.91
2023-01-25T10:38:45.511Z,96101.53
2023-01-25T10:41:21.481Z,96102.25
2023-01-25T10:43:48.057Z,96103.91
2023-01-25T10:46:21.701Z,96091.09
2023-01-25T10:48:48.411Z,96084.97
2023-01-25T10:51:33.647Z,96087.56
2023-01-25T10:54:06.087Z,96090.72
2023-01-25T10:56:40.483Z,96080.72
2023-01-25T10:59:25.568Z,96075.72
2023-01-25T11:01:52.790Z,96072.03
2023-01-25T11:04:35.745Z,96074.44
2023-01-25T11:07:05.748Z,96069.38
2023-01-25T11:09:40.220Z,96060.50
2023-01-25T11:12:20.874Z,96054.13
2023-01-25T11:14:52.616Z,96057.78
2023-01-25T11:17:31.402Z,96055.97
2023-01-25T11:20:15.024Z,96046.34
2023-01-25T11:22:54.336Z,96047.91
2023-01-25T11:25:33.271Z,96040.50
2023-01-25T11:28:21.772Z,96033.69
2023-01-25T11:30:50.794Z,96030.66
2023-01-25T11:33:20.101Z,96025.59
2023-01-25T11:36:10.998Z,96030.53
2023-01-25T11:38:44.379Z,96020.56
2023-01-25T11:41:35.079Z,96015.38
2023-01-25T11:44:39.694Z,96016.69
2023-01-25T11:47:15.169Z,96009.94
2023-01-25T11:49:49.796Z,96007.16
2023-01-25T11:52:40.168Z,96001.72
2023-01-25T11:55:40.317Z,96001.00
2023-01-25T11:58:32.182Z,95985.88
2023-01-25T12:01:01.478Z,95982.19
2023-01-25T12:03:40.387Z,95977.25
2023-01-25T12:06:38.288Z,95973.69
2023-01-25T12:09:26.947Z,95969.19
2023-01-25T12:12:25.843Z,95959.50
2023-01-25T12:14:58.417Z,95956.69
2023-01-25T12:17:24.953Z,95955.69
2023-01-25T12:20:31.411Z,95944.63
2023-01-25T12:23:31.537Z,95938.09
2023-01-25T12:26:08.524Z,95940.91
2023-01-25T12:28:39.583Z,95938.25
2023-01-25T12:31:20.569Z,95935.38
2023-01-25T12:34:03.968Z,95933.00
2023-01-25T12:36:32.902Z,95923.56
2023-01-25T12:39:11.418Z,95929.38
2023-01-25T12:42:04.174Z,95921.56
2023-01-25T12:44:30.671Z,95918.94
2023-01-25T12:47:21.686Z,95910.78
2023-01-25T12:50:14.399Z,95905.72
2023-01-25T12:52:46.781Z,95900.44
2023-01-25T12:55:15.731Z,95899.94
2023-01-25T12:57:48.396Z,95904.06
2023-01-25T13:00:26.128Z,95903.22
2023-01-25T13:03:12.535Z,95898.28
2023-01-25T13:05:47.132Z,95895.56
2023-01-25T13:08:35.507Z,95899.88
2023-01-25T13:11:16.717Z,95895.88
2023-01-25T13:13:43.574Z,95891.53
2023-01-25T13:16:35.061Z,95890.75
2023-01-25T13:19:01.847Z,95885.22
2023-01-25T13:21:37.194Z,95892.41
2023-01-25T13:24:20.429Z,95884.38
2023-01-25T13:26:51.640Z,95883.19
2023-01-25T13:29:36.323Z,95883.25
2023-01-25T13:32:05.078Z,95885.69
2023-01-25T13:34:34.710Z,95889.94
2023-01-25T13:37:16.817Z,95898.72
2023-01-25T13:40:06.864Z,95887.63
2023-01-25T13:42:39.314Z,95881.13
2023-01-25T13:45:21.178Z,95879.47
2023-01-25T13:48:03.166Z,95874.97
2023-01-25T13:50:32.705Z,95873.00
2023-01-25T13:53:35.332Z,95867.72
2023-01-25T13:56:02.610Z,95859.88
2023-01-25T13:58:44.907Z,95857.72
2023-01-25T14:01:17.222Z,95850.97
2023-01-25T14:03:59.466Z,95857.53
2023-01-25T14:06:27.983Z,95854.94
2023-01-25T14:08:58.198Z,95854.44
2023-01-25T14:11:28.373Z,95858.50
2023-01-25T14:14:00.291Z,95854.94
2023-01-25T14:16:29.941Z,95858.16
2023-01-25T14:19:18.012Z,95850.41
2023-01-25T14:21:44.596Z,95854.94
2023-01-25T14:24:11.724Z,95851.75
2023-01-25T14:26:41.929Z,95845.94
2023-01-25T14:29:31.951Z,95843.53
2023-01-25T14:31:59.865Z,95846.00
2023-01-25T14:34:27.030Z,95848.59
2023-01-25T14:37:16.142Z,95837.00
2023-01-25T14:39:42.728Z,95839.16
2023-01-25T14:42:09.888Z,95835.66
2023-01-25T14:44:36.731Z,95823.50
2023-01-25T14:47:32.332Z,95828.13
2023-01-25T14:50:36.211Z,95828.81
2023-01-25T14:53:24.027Z,95827.81
2023-01-25T14:55:51.389Z,95823.50
2023-01-25T14:58:21.811Z,95822.88
2023-01-25T15:01:02.955Z,95818.66
2023-01-25T15:03:31.275Z,95819.38
2023-01-25T15:06:03.009Z,95823.66
2023-01-25T15:08:35.692Z,95825.34
2023-01-25T15:11:20.949Z,95819.69
2023-01-25T15:13:47.862Z,95820.22
2023-01-25T15:16:16.668Z,95820.59
2023-01-25T15:18:51.455Z,95818.19
2023-01-25T15:21:18.909Z,95817.56
2023-01-25T15:23:48.228Z,95816.66
2023-01-25T15:26:20.912Z,95805.50
2023-01-25T15:28:49.005Z,95808.03
2023-01-25T15:31:24.594Z,95808.38
2023-01-25T15:33:51.561Z,95797.22
2023-01-25T15:36:18.634Z,95785.50
2023-01-25T15:38:45.903Z,95780.19
2023-01-25T15:41:13.785Z,95771.44
2023-01-25T15:43:40.998Z,95775.25
2023-01-25T15:46:18.006Z,95777.66
2023-01-25T15:48:46.278Z,95776.00
2023-01-25T15:51:13.483Z,95772.47
2023-01-25T15:53:40.403Z,95785.13
2023-01-25T15:56:13.891Z,95773.47
2023-01-25T15:58:43.216Z,95782.72
2023-01-25T16:01:10.207Z,95779.47
2023-01-25T16:03:37.014Z,95777.22
2023-01-25T16:06:07.492Z,95784.22
2023-01-25T16:08:34.566Z,95775.31
2023-01-25T16:11:01.139Z,95782.09
2023-01-25T16:13:27.713Z,95778.34
2023-01-25T16:15:56.646Z,95773.66
2023-01-25T16:18:23.454Z,95771.75
2023-01-25T16:20:50.269Z,95774.78
2023-01-25T16:23:16.864Z,95769.41
2023-01-25T16:25:44.750Z,95767.22
2023-01-25T16:28:15.948Z,95765.06
2023-01-25T16:30:44.995Z,95766.00
2023-01-25T16:33:11.851Z,95761.00
2023-01-25T16:35:38.451Z,95759.66
2023-01-25T16:38:05.041Z,95754.19
2023-01-25T16:40:39.741Z,95759.34
2023-01-25T16:43:06.518Z,95753.56
2023-01-25T16:45:33.129Z,95753.88
2023-01-25T16:48:00.138Z,95755.81
2023-01-25T16:50:26.712Z,95750.03
2023-01-25T16:52:54.997Z,95751.22
2023-01-25T16:55:21.665Z,95742.00
2023-01-25T16:57:51.782Z,95735.78
2023-01-25T17:00:18.893Z,95740.16
2023-01-25T17:02:58.115Z,95735.16
2023-01-25T17:05:29.017Z,95736.22
2023-01-25T17:07:55.860Z,95725.41
2023-01-25T17:10:22.559Z,95726.28
2023-01-25T17:12:49.806Z,95724.50
2023-01-25T17:15:19.864Z,95733.00
2023-01-25T17:17:46.737Z,95729.63
2023-01-25T17:20:13.349Z,95724.44
2023-01-25T17:22:40.930Z,95721.16
2023-01-25T17:25:08.014Z,95721.28
2023-01-25T17:27:34.540Z,95705.97
2023-01-25T17:30:01.209Z,95705.97
2023-01-25T17:32:28.705Z,95697.44
2023-01-25T17:34:58.932Z,95698.56
2023-01-25T17:37:25.915Z,95705.34
2023-01-25T17:39:52.770Z,95696.66
2023-01-25T17:42:19.474Z,95694.56
2023-01-25T17:44:46.030Z,95691.09
2023-01-25T17:47:12.595Z,95690.53
2023-01-25T17:49:39.313Z,95694.72
2023-01-25T17:52:06.167Z,95690.28
2023-01-25T17:54:32.765Z,95687.88
2023-01-25T17:56:59.703Z,95682.00
2023-01-25T17:59:26.301Z,95680.22
2023-01-25T18:01:52.964Z,95677.88
2023-01-25T18:04:20.397Z,95670.41
2023-01-25T18:06:47.020Z,95669.03
2023-01-25T18:09:16.268Z,95663.31
2023-01-25T18:11:47.954Z,95659.84
2023-01-25T18:14:16.875Z,95658.81
2023-01-25T18:16:44.803Z,95658.69
2023-01-25T18:19:12.010Z,95646.88
2023-01-25T18:21:38.752Z,95656.28
2023-01-25T18:24:22.700Z,95653.63
2023-01-25T18:26:50.804Z,95652.03
2023-01-25T18:29:17.356Z,95652.03
2023-01-25T18:31:45.518Z,95645.28
2023-01-25T18:34:12.207Z,95642.06
2023-01-25T18:36:38.779Z,95641.19
2023-01-25T18:39:06.817Z,95638.13
2023-01-25T18:41:33.411Z,95634.47
2023-01-25T18:44:00.003Z,95642.81
2023-01-25T18:46:26.641Z,95649.66
2023-01-25T18:48:53.226Z,95641.47
2023-01-25T18:51:19.997Z,95639.00
2023-01-25T18:53:47.640Z,95630.34
2023-01-25T18:56:19.572Z,95632.09
2023-01-25T18:58:46.423Z,95633.06
2023-01-25T19:01:18.971Z,95631.16
2023-01-25T19:03:48.702Z,95619.44
2023-01-25T19:06:15.949Z,95615.44
2023-01-25T19:08:44.472Z,95614.66
2023-01-25T19:11:16.174Z,95612.31
2023-01-25T19:13:43.859Z,95611.41
2023-01-25T19:16:17.124Z,95612.47
2023-01-25T19:18:47.070Z,95612.88
2023-01-25T19:21:25.456Z,95604.47
2023-01-25T19:23:53.868Z,95595.94
2023-01-25T19:26:25.020Z,95595.06
2023-01-25T19:28:52.875Z,95590.00
2023-01-25T19:31:22.255Z,95585.75
2023-01-25T19:33:55.181Z,95578.97
2023-01-25T19:36:21.998Z,95578.16
2023-01-25T19:38:49.342Z,95570.25
2023-01-25T19:41:19.095Z,95568.59
2023-01-25T19:43:46.209Z,95574.69
2023-01-25T19:46:18.400Z,95569.75
2023-01-25T19:48:49.951Z,95569.69
2023-01-25T19:51:23.985Z,95572.63
2023-01-25T19:53:59.895Z,95566.41
2023-01-25T19:56:28.371Z,95560.38
2023-01-25T19:58:55.023Z,95553.22
2023-01-25T20:01:24.687Z,95560.94
2023-01-25T20:03:52.094Z,95556.97
2023-01-25T20:06:20.326Z,95548.63
2023-01-25T20:08:47.819Z,95542.63
2023-01-25T20:11:22.999Z,95545.31
2023-01-25T20:13:51.839Z,95541.84
2023-01-25T20:16:19.193Z,95535.47
2023-01-25T20:18:47.626Z,95541.06
2023-01-25T20:21:25.709Z,95537.56
2023-01-25T20:23:57.069Z,95536.16
2023-01-25T20:26:29.901Z,95536.16
2023-01-25T20:28:57.636Z,95532.97
2023-01-25T20:31:33.821Z,95535.94
2023-01-25T20:34:06.717Z,95532.88
2023-01-25T20:36:34.877Z,95528.59
2023-01-25T20:39:01.703Z,95535.78
2023-01-25T20:41:28.488Z,95528.13
2023-01-25T20:44:04.497Z,95531.63
2023-01-25T20:46:33.921Z,95517.25
2023-01-25T20:49:01.895Z,95518.22
2023-01-25T20:51:29.549Z,95516.56
2023-01-25T20:53:56.896Z,95516.44
2023-01-25T20:56:23.798Z,95508.34
2023-01-25T20:58:51.500Z,95512.28
2023-01-25T21:01:20.229Z,95505.13
2023-01-25T21:03:47.305Z,95509.94
2023-01-25T21:06:14.047Z,95503.88
2023-01-25T21:08:40.664Z,95502.91
2023-01-25T21:11:08.269Z,95502.06
2023-01-25T21:13:34.960Z,95504.41
2023-01-25T21:16:04.862Z,95509.41
2023-01-25T21:18:34.043Z,95497.75
2023-01-25T21:21:07.294Z,95497.75
2023-01-25T21:23:35.145Z,95501.78
2023-01-25T21:26:03.257Z,95498.19
2023-01-25T21:28:30.171Z,95490.41
2023-01-25T21:30:56.954Z,95484.66
2023-01-25T21:33:23.658Z,95483.56
2023-01-25T21:35:54.297Z,95477.75
2023-01-25T21:38:21.432Z,95477.53
2023-01-25T21:40:48.064Z,95479.13
2023-01-25T21:43:17.845Z,95477.28
2023-01-25T21:46:03.518Z,95473.88
2023-01-25T21:48:51.752Z,95475.66
2023-01-25T21:51:51.042Z,95464.63
2023-01-25T21:54:26.401Z,95469.75
2023-01-25T21:56:55.594Z,95465.78
2023-01-25T21:59:22.523Z,95469.81
2023-01-25T22:01:49.677Z,95468.78
2023-01-25T22:04:18.982Z,95465.34
2023-01-25T22:06:46.188Z,95464.94
2023-01-25T22:09:13.380Z,95452.31
2023-01-25T22:11:40.229Z,95455.81
2023-01-25T22:14:07.214Z,95444.38
2023-01-25T22:16:34.030Z,95437.34
2023-01-25T22:19:00.609Z,95441.56
2023-01-25T22:21:33.665Z,95441.34
2023-01-25T22:24:02.517Z,95436.25
2023-01-25T22:27:13.911Z,95437.81
2023-01-25T22:29:40.464Z,95435.78
2023-01-25T22:32:07.114Z,95435.69
2023-01-25T22:34:33.817Z,95431.53
2023-01-25T22:37:00.404Z,95429.28
2023-01-25T22:39:27.015Z,95425.03
2023-01-25T22:41:53.611Z,95428.66
2023-01-25T22:44:20.174Z,95422.84
2023-01-25T22:46:47.370Z,95422.09
2023-01-25T22:49:14.300Z,95411.75
2023-01-25T22:51:40.878Z,95413.81
2023-01-25T22:54:08.015Z,95403.97
2023-01-25T22:56:34.652Z,95402.19
2023-01-25T22:59:01.987Z,95400.69
2023-01-25T23:01:31.140Z,95398.69
2023-01-25T23:03:58.416Z,95395.28
2023-01-25T23:06:27.326Z,95390.84
2023-01-25T23:08:56.152Z,95392.28
2023-01-25T23:11:24.635Z,95381.41
2023-01-25T23:14:11.683Z,95379.50
2023-01-25T23:16:38.268Z,95380.53
2023-01-25T23:19:05.195Z,95379.44
2023-01-25T23:21:32.341Z,95375.19
2023-01-25T23:24:00.965Z,95375.97
2023-01-25T23:26:28.111Z,95365.97
2023-01-25T23:28:56.925Z,95365.63
2023-01-25T23:31:25.222Z,95366.53
2023-01-25T23:33:54.731Z,95366.22
2023-01-25T23:36:24.096Z,95359.47
2023-01-25T23:38:50.866Z,95352.81
2023-01-25T23:41:19.123Z,95357.63
2023-01-25T23:43:46.142Z,95354.06
2023-01-25T23:46:16.016Z,95354.56
2023-01-25T23:48:43.999Z,95354.69
2023-01-25T23:51:12.064Z,95351.97
2023-01-25T23:53:39.361Z,95354.19
2023-01-25T23:56:09.104Z,95349.69
2023-01-25T23:58:37.733Z,95350.94
